createdAt,value
2023-03-21T00:01:44.779Z,7.97
2023-03-21T00:04:11.957Z,8.90
2023-03-21T00:06:38.568Z,9.73
2023-03-21T00:09:04.834Z,10.93
2023-03-21T00:11:31.108Z,9.93
2023-03-21T00:13:58.388Z,10.65
2023-03-21T00:16:31.243Z,8.10
2023-03-21T00:18:58.884Z,8.52
2023-03-21T00:24:14.878Z,7.75
2023-03-21T00:26:41.152Z,9.57
2023-03-21T00:29:07.361Z,7.68
2023-03-21T00:31:33.921Z,9.13
2023-03-21T00:34:00.749Z,8.48
2023-03-21T00:36:27.091Z,8.50
2023-03-21T00:38:53.937Z,7.28
2023-03-21T00:41:35.140Z,8.55
2023-03-21T00:44:06.740Z,8.07
2023-03-21T00:46:43.707Z,10.45
2023-03-21T00:49:13.312Z,7.75
2023-03-21T00:51:39.518Z,8.07
2023-03-21T00:54:05.849Z,8.60
2023-03-21T00:56:32.370Z,10.15
2023-03-21T00:58:58.686Z,9.50
2023-03-21T01:01:26.395Z,10.13
2023-03-21T01:04:04.678Z,9.98
2023-03-21T01:06:32.120Z,11.98
2023-03-21T01:08:58.482Z,12.93
2023-03-21T01:11:26.441Z,11.43
2023-03-21T01:13:59.870Z,9.82
2023-03-21T01:16:30.822Z,11.43
2023-03-21T01:18:57.169Z,12.27
2023-03-21T01:21:23.437Z,8.88
2023-03-21T01:23:49.648Z,14.27
2023-03-21T01:26:15.963Z,11.85
2023-03-21T01:28:42.911Z,12.57
2023-03-21T01:31:11.351Z,11.57
2023-03-21T01:33:37.618Z,12.93
2023-03-21T01:36:12.724Z,11.18
2023-03-21T01:38:40.326Z,12.10
2023-03-21T01:41:18.650Z,11.75
2023-03-21T01:43:45.861Z,10.52
2023-03-21T01:46:21.207Z,8.60
2023-03-21T01:48:54.072Z,12.00
2023-03-21T01:51:21.655Z,12.35
2023-03-21T01:53:48.345Z,10.32
2023-03-21T01:56:23.760Z,13.52
2023-03-21T01:58:51.116Z,14.85
2023-03-21T02:01:18.579Z,11.57
2023-03-21T02:03:52.979Z,11.18
2023-03-21T02:06:22.352Z,11.95
2023-03-21T02:08:48.683Z,12.13
2023-03-21T02:11:15.758Z,12.50
2023-03-21T02:13:42.129Z,11.35
2023-03-21T02:16:19.852Z,14.38
2023-03-21T02:19:04.245Z,12.60
2023-03-21T02:21:30.477Z,12.18
2023-03-21T02:23:56.628Z,14.93
2023-03-21T02:26:46.492Z,13.60
2023-03-21T02:29:26.940Z,13.02
2023-03-21T02:32:20.210Z,11.63
2023-03-21T02:34:51.341Z,12.30
2023-03-21T02:37:40.292Z,11.00
2023-03-21T02:40:27.003Z,9.88
2023-03-21T02:43:00.046Z,12.82
2023-03-21T02:45:30.500Z,12.57
2023-03-21T02:48:00.515Z,9.27
2023-03-21T02:50:30.210Z,11.85
2023-03-21T02:52:57.146Z,10.73
2023-03-21T02:55:25.549Z,12.13
2023-03-21T02:57:53.358Z,13.73
2023-03-21T03:00:21.494Z,10.25
2023-03-21T03:02:54.514Z,12.20
2023-03-21T03:05:24.977Z,13.00
2023-03-21T03:08:00.711Z,13.95
2023-03-21T03:10:50.384Z,11.93
2023-03-21T03:13:34.750Z,11.55
2023-03-21T03:16:11.381Z,14.98
2023-03-21T03:18:53.713Z,10.23
2023-03-21T03:21:29.435Z,10.68
2023-03-21T03:23:57.789Z,9.77
2023-03-21T03:26:26.936Z,8.13
2023-03-21T03:28:54.577Z,9.80
2023-03-21T03:31:25.939Z,10.35
2023-03-21T03:36:31.664Z,9.30
2023-03-21T03:38:59.542Z,12.15
2023-03-21T03:41:26.589Z,13.32
2023-03-21T03:43:54.897Z,16.20
2023-03-21T03:46:30.774Z,13.10
2023-03-21T03:49:00.184Z,11.90
2023-03-21T03:51:28.842Z,11.57
2023-03-21T03:54:03.608Z,13.32
2023-03-21T03:56:30.110Z,13.85
2023-03-21T03:58:56.742Z,9.50
2023-03-21T04:01:23.102Z,8.55
2023-03-21T04:03:53.053Z,10.20
2023-03-21T04:06:25.860Z,9.88
2023-03-21T04:08:52.375Z,11.18
2023-03-21T04:11:18.602Z,9.63
2023-03-21T04:13:44.837Z,8.60
2023-03-21T04:16:13.404Z,7.63
2023-03-21T04:18:40.277Z,10.57
2023-03-21T04:21:08.019Z,10.02
2023-03-21T04:23:35.656Z,11.77
2023-03-21T04:26:02.455Z,9.60
2023-03-21T04:28:28.701Z,9.80
2023-03-21T04:31:03.694Z,12.32
2023-03-21T04:33:38.166Z,8.40
2023-03-21T04:38:33.792Z,10.43
2023-03-21T04:41:00.450Z,11.77
2023-03-21T04:43:28.281Z,14.18
2023-03-21T04:45:54.816Z,11.63
2023-03-21T04:48:24.387Z,11.60
2023-03-21T04:50:51.384Z,11.48
2023-03-21T04:53:17.793Z,9.90
2023-03-21T04:55:45.027Z,12.05
2023-03-21T04:58:11.803Z,9.77
2023-03-21T05:00:38.368Z,13.55
2023-03-21T05:03:08.852Z,13.93
2023-03-21T05:05:36.542Z,15.65
2023-03-21T05:08:03.044Z,11.50
2023-03-21T05:10:29.283Z,13.38
2023-03-21T05:12:55.741Z,9.90
2023-03-21T05:15:21.998Z,11.00
2023-03-21T05:17:48.626Z,11.00
2023-03-21T05:20:16.155Z,13.77
2023-03-21T05:22:42.797Z,12.25
2023-03-21T05:25:09.646Z,12.30
2023-03-21T05:27:36.000Z,13.07
2023-03-21T05:30:07.456Z,12.75
2023-03-21T05:32:33.890Z,11.93
2023-03-21T05:35:00.325Z,12.88
2023-03-21T05:37:26.502Z,11.05
2023-03-21T05:39:52.748Z,12.15
2023-03-21T05:42:19.284Z,11.15
2023-03-21T05:44:46.069Z,13.63
2023-03-21T05:47:13.145Z,11.13
2023-03-21T05:49:39.644Z,14.48
2023-03-21T05:52:05.884Z,15.25
2023-03-21T05:54:32.107Z,12.52
2023-03-21T05:56:58.375Z,13.85
2023-03-21T05:59:24.606Z,11.65
2023-03-21T06:01:50.826Z,13.32
2023-03-21T06:04:17.123Z,15.52
2023-03-21T06:06:43.402Z,17.35
2023-03-21T06:09:09.610Z,10.75
2023-03-21T06:11:36.666Z,15.27
2023-03-21T06:14:03.058Z,15.95
2023-03-21T06:16:29.530Z,14.68
2023-03-21T06:18:56.098Z,21.02
2023-03-21T06:21:22.448Z,14.75
2023-03-21T06:23:51.540Z,14.02
2023-03-21T06:26:22.666Z,13.15
2023-03-21T06:28:49.410Z,16.67
2023-03-21T06:31:15.643Z,12.65
2023-03-21T06:33:41.923Z,14.32
2023-03-21T06:36:08.362Z,13.05
2023-03-21T06:38:37.948Z,14.68
2023-03-21T06:41:04.776Z,12.50
2023-03-21T06:43:31.929Z,14.70
2023-03-21T06:45:58.248Z,14.65
2023-03-21T06:48:24.573Z,13.30
2023-03-21T06:50:51.411Z,11.98
2023-03-21T06:53:18.419Z,13.50
2023-03-21T06:55:48.897Z,13.27
2023-03-21T06:58:15.167Z,13.50
2023-03-21T07:00:41.908Z,10.90
2023-03-21T07:03:08.142Z,16.17
2023-03-21T07:05:37.874Z,12.88
2023-03-21T07:08:04.719Z,17.30
2023-03-21T07:10:31.197Z,16.60
2023-03-21T07:13:00.273Z,13.05
2023-03-21T07:15:26.460Z,15.45
2023-03-21T07:17:52.774Z,16.38
2023-03-21T07:20:19.121Z,14.35
2023-03-21T07:22:45.595Z,14.75
2023-03-21T07:25:11.927Z,12.55
2023-03-21T07:27:40.677Z,15.35
2023-03-21T07:30:07.612Z,15.13
2023-03-21T07:32:34.514Z,12.23
2023-03-21T07:35:01.844Z,16.10
2023-03-21T07:37:28.124Z,14.93
2023-03-21T07:39:54.375Z,14.20
2023-03-21T07:42:20.717Z,14.05
2023-03-21T07:44:47.000Z,16.08
2023-03-21T07:47:13.181Z,16.23
2023-03-21T07:49:39.400Z,15.50
2023-03-21T07:52:07.728Z,18.58
2023-03-21T07:54:34.182Z,14.05
2023-03-21T07:57:00.425Z,16.90
2023-03-21T07:59:26.619Z,13.73
2023-03-21T08:01:52.848Z,16.90
2023-03-21T08:04:19.088Z,18.25
2023-03-21T08:06:45.338Z,13.18
2023-03-21T08:09:11.566Z,15.23
2023-03-21T08:11:37.814Z,12.30
2023-03-21T08:14:04.097Z,12.18
2023-03-21T08:16:30.625Z,13.73
2023-03-21T08:18:56.880Z,14.05
2023-03-21T08:21:23.392Z,16.35
2023-03-21T08:23:49.588Z,11.85
2023-03-21T08:26:18.357Z,15.05
2023-03-21T08:28:44.887Z,15.88
2023-03-21T08:31:12.131Z,12.07
2023-03-21T08:33:38.849Z,15.52
2023-03-21T08:36:05.913Z,15.32
2023-03-21T08:38:33.427Z,17.65
2023-03-21T08:41:02.614Z,16.20
2023-03-21T08:43:29.082Z,14.45
2023-03-21T08:45:55.879Z,13.82
2023-03-21T08:48:22.627Z,13.63
2023-03-21T08:50:48.851Z,10.88
2023-03-21T08:53:15.179Z,17.95
2023-03-21T08:55:41.393Z,14.55
2023-03-21T08:58:07.726Z,13.57
2023-03-21T09:00:34.036Z,14.40
2023-03-21T09:03:00.257Z,13.80
2023-03-21T09:05:27.064Z,12.93
2023-03-21T09:07:53.288Z,10.13
2023-03-21T09:10:22.574Z,14.68
2023-03-21T09:12:50.379Z,14.13
2023-03-21T09:15:18.028Z,11.63
2023-03-21T09:17:49.990Z,14.13
2023-03-21T09:20:21.147Z,13.20
2023-03-21T09:22:48.451Z,10.77
2023-03-21T09:25:16.041Z,14.48
2023-03-21T09:27:45.718Z,12.77
2023-03-21T09:30:13.703Z,14.45
2023-03-21T09:32:40.234Z,11.68
2023-03-21T09:35:07.750Z,15.25
2023-03-21T09:37:37.423Z,10.48
2023-03-21T09:40:08.624Z,14.00
2023-03-21T09:42:42.006Z,15.73
2023-03-21T09:45:27.089Z,16.35
2023-03-21T09:47:53.755Z,17.13
2023-03-21T09:50:27.343Z,14.98
2023-03-21T09:53:05.721Z,21.88
2023-03-21T09:55:34.949Z,12.98
2023-03-21T09:58:05.633Z,15.05
2023-03-21T10:00:37.291Z,9.93
2023-03-21T10:03:06.720Z,15.25
2023-03-21T10:05:34.096Z,12.38
2023-03-21T10:08:04.572Z,10.75
2023-03-21T10:10:54.340Z,11.38
2023-03-21T10:13:26.008Z,11.48
2023-03-21T10:15:56.604Z,13.07
2023-03-21T10:18:24.192Z,11.47
2023-03-21T10:20:51.106Z,12.20
2023-03-21T10:23:19.104Z,11.35
2023-03-21T10:25:51.217Z,14.32
2023-03-21T10:28:22.347Z,14.10
2023-03-21T10:30:53.679Z,12.05
2023-03-21T10:33:24.598Z,12.00
2023-03-21T10:35:53.290Z,11.88
2023-03-21T10:38:21.037Z,11.02
2023-03-21T10:40:47.343Z,11.23
2023-03-21T10:43:16.317Z,12.95
2023-03-21T10:45:44.922Z,14.27
2023-03-21T10:48:11.435Z,13.27
2023-03-21T10:50:37.822Z,9.07
2023-03-21T10:53:12.399Z,13.63
2023-03-21T10:55:40.983Z,11.48
2023-03-21T10:58:08.545Z,10.57
2023-03-21T11:00:36.821Z,12.93
2023-03-21T11:03:03.687Z,12.68
2023-03-21T11:05:38.447Z,12.55
2023-03-21T11:08:12.197Z,12.05
2023-03-21T11:10:47.971Z,11.27
2023-03-21T11:13:18.364Z,11.43
2023-03-21T11:15:44.559Z,11.45
2023-03-21T11:18:24.115Z,13.63
2023-03-21T11:20:57.260Z,9.98
2023-03-21T11:23:28.649Z,12.32
2023-03-21T11:25:55.591Z,10.25
2023-03-21T11:28:23.266Z,11.85
2023-03-21T11:31:03.324Z,11.48
2023-03-21T11:33:40.455Z,17.88
2023-03-21T11:36:27.088Z,12.48
2023-03-21T11:38:56.454Z,12.23
2023-03-21T11:41:29.483Z,10.52
2023-03-21T11:43:57.384Z,11.75
2023-03-21T11:46:25.563Z,14.48
2023-03-21T11:48:52.127Z,20.60
2023-03-21T11:51:21.311Z,17.67
2023-03-21T11:53:56.461Z,16.88
2023-03-21T11:56:27.917Z,11.88
2023-03-21T11:59:06.797Z,10.77
2023-03-21T12:01:39.169Z,13.40
2023-03-21T12:04:05.506Z,12.25
2023-03-21T12:06:34.957Z,14.13
2023-03-21T12:09:17.717Z,11.77
2023-03-21T12:12:00.324Z,13.40
2023-03-21T12:14:32.549Z,12.73
2023-03-21T12:17:17.300Z,17.63
2023-03-21T12:19:43.492Z,10.73
2023-03-21T12:22:12.730Z,12.63
2023-03-21T12:24:50.404Z,14.02
2023-03-21T12:27:16.602Z,9.35
2023-03-21T12:30:01.417Z,13.30
2023-03-21T12:32:27.636Z,10.95
2023-03-21T12:35:12.675Z,13.30
2023-03-21T12:37:45.105Z,8.98
2023-03-21T12:40:26.962Z,10.27
2023-03-21T12:43:11.699Z,10.90
2023-03-21T12:45:47.305Z,8.98
2023-03-21T12:48:17.342Z,8.50
2023-03-21T12:50:45.673Z,10.63
2023-03-21T12:53:17.739Z,8.80
2023-03-21T12:55:44.336Z,10.05
2023-03-21T12:58:19.652Z,10.23
2023-03-21T13:00:54.601Z,8.95
2023-03-21T13:03:37.395Z,10.77
2023-03-21T13:06:07.041Z,8.93
2023-03-21T13:08:36.542Z,8.52
2023-03-21T13:11:04.257Z,10.25
2023-03-21T13:13:35.590Z,8.00
2023-03-21T13:16:14.044Z,8.00
2023-03-21T13:18:46.492Z,9.98
2023-03-21T13:21:15.037Z,9.38
2023-03-21T13:23:41.253Z,6.90
2023-03-21T13:26:11.223Z,7.50
2023-03-21T13:28:39.517Z,8.77
2023-03-21T13:31:15.033Z,9.50
2023-03-21T13:33:44.599Z,8.00
2023-03-21T13:36:14.960Z,8.85
2023-03-21T13:38:41.324Z,8.02
2023-03-21T13:41:07.532Z,11.02
2023-03-21T13:43:52.630Z,9.60
2023-03-21T13:46:25.096Z,8.30
2023-03-21T13:49:00.344Z,9.52
2023-03-21T13:51:35.994Z,10.80
2023-03-21T13:54:02.179Z,9.18
2023-03-21T13:56:30.321Z,15.95
2023-03-21T13:59:00.541Z,10.32
2023-03-21T14:01:35.901Z,10.20
2023-03-21T14:04:04.892Z,8.73
2023-03-21T14:06:36.321Z,7.82
2023-03-21T14:09:03.737Z,9.52
2023-03-21T14:11:31.365Z,9.93
2023-03-21T14:14:00.186Z,10.13
2023-03-21T14:16:28.498Z,8.23
2023-03-21T14:18:56.462Z,8.23
2023-03-21T14:21:24.774Z,9.13
2023-03-21T14:23:57.434Z,11.57
2023-03-21T14:26:25.525Z,10.15
2023-03-21T14:28:52.595Z,9.13
2023-03-21T14:31:19.382Z,9.25
2023-03-21T14:33:49.375Z,10.40
2023-03-21T14:36:27.208Z,6.60
2023-03-21T14:38:54.774Z,8.00
2023-03-21T14:41:22.757Z,8.52
2023-03-21T14:44:25.198Z,8.85
2023-03-21T14:47:00.315Z,10.27
2023-03-21T14:49:28.395Z,9.48
2023-03-21T14:51:55.852Z,10.88
2023-03-21T14:54:22.619Z,9.60
2023-03-21T14:56:50.874Z,10.13
2023-03-21T14:59:19.386Z,8.40
2023-03-21T15:01:47.019Z,7.72
2023-03-21T15:04:14.806Z,8.70
2023-03-21T15:06:54.726Z,7.25
2023-03-21T15:09:22.408Z,5.68
2023-03-21T15:11:52.189Z,8.63
2023-03-21T15:14:20.806Z,8.10
2023-03-21T15:16:47.841Z,9.65
2023-03-21T15:19:16.292Z,6.60
2023-03-21T15:21:50.954Z,9.63
2023-03-21T15:24:26.995Z,8.63
2023-03-21T15:26:56.866Z,6.88
2023-03-21T15:29:24.360Z,9.57
2023-03-21T15:31:50.701Z,7.82
2023-03-21T15:34:18.425Z,8.77
2023-03-21T15:36:46.634Z,7.63
2023-03-21T15:39:13.923Z,9.73
2023-03-21T15:41:40.757Z,8.23
2023-03-21T15:44:10.161Z,7.18
2023-03-21T15:46:48.267Z,7.55
2023-03-21T15:49:14.573Z,12.18
2023-03-21T15:51:41.809Z,7.05
2023-03-21T15:54:17.054Z,8.50
2023-03-21T15:56:45.974Z,8.07
2023-03-21T15:59:14.251Z,9.80
2023-03-21T16:01:40.670Z,6.55
2023-03-21T16:04:10.484Z,6.75
2023-03-21T16:06:38.182Z,6.60
2023-03-21T16:09:09.809Z,8.90
2023-03-21T16:11:56.332Z,9.13
2023-03-21T16:14:23.405Z,6.68
2023-03-21T16:16:50.595Z,10.10
2023-03-21T16:19:17.095Z,5.93
2023-03-21T16:21:43.462Z,6.22
2023-03-21T16:24:11.614Z,4.75
2023-03-21T16:26:39.474Z,5.93
2023-03-21T16:29:08.277Z,5.10
2023-03-21T16:31:35.989Z,5.90
2023-03-21T16:34:03.213Z,8.27
2023-03-21T16:36:31.333Z,6.75
2023-03-21T16:38:58.123Z,5.93
2023-03-21T16:41:25.409Z,6.18
2023-03-21T16:43:52.158Z,5.78
2023-03-21T16:46:20.024Z,6.25
2023-03-21T16:48:47.537Z,4.55
2023-03-21T16:51:18.442Z,4.90
2023-03-21T16:53:45.140Z,4.15
2023-03-21T16:56:15.418Z,5.20
2023-03-21T16:58:41.661Z,4.97
2023-03-21T17:01:11.676Z,4.65
2023-03-21T17:03:38.122Z,3.75
2023-03-21T17:06:05.259Z,6.22
2023-03-21T17:08:31.478Z,4.90
2023-03-21T17:10:59.762Z,5.13
2023-03-21T17:13:26.018Z,4.25
2023-03-21T17:15:52.236Z,4.45
2023-03-21T17:18:18.430Z,6.38
2023-03-21T17:20:44.781Z,6.93
2023-03-21T17:23:11.848Z,4.60
2023-03-21T17:25:38.066Z,5.82
2023-03-21T17:28:04.314Z,6.45
2023-03-21T17:30:34.983Z,6.63
2023-03-21T17:33:01.548Z,4.30
2023-03-21T17:35:28.327Z,4.68
2023-03-21T17:37:58.071Z,5.18
2023-03-21T17:40:25.874Z,4.80
2023-03-21T17:42:53.022Z,5.00
2023-03-21T17:45:19.619Z,5.68
2023-03-21T17:47:46.493Z,6.20
2023-03-21T17:50:16.309Z,5.80
2023-03-21T17:52:42.524Z,5.82
2023-03-21T17:55:08.750Z,5.43
2023-03-21T17:57:36.283Z,4.25
2023-03-21T18:00:05.047Z,4.45
2023-03-21T18:02:31.450Z,8.07
2023-03-21T18:04:57.673Z,5.63
2023-03-21T18:07:50.041Z,7.53
2023-03-21T18:10:18.052Z,7.00
2023-03-21T18:12:47.143Z,6.88
2023-03-21T18:15:17.036Z,6.78
2023-03-21T18:17:43.405Z,6.70
2023-03-21T18:20:13.070Z,5.30
2023-03-21T18:22:39.266Z,4.82
2023-03-21T18:25:05.855Z,6.68
2023-03-21T18:27:33.104Z,10.95
2023-03-21T18:30:32.703Z,6.70
2023-03-21T18:32:46.306Z,4.75
2023-03-21T18:35:14.412Z,5.55
2023-03-21T18:37:41.281Z,5.05
2023-03-21T18:40:10.132Z,4.65
2023-03-21T18:42:36.955Z,3.97
2023-03-21T18:45:03.956Z,6.03
2023-03-21T18:47:31.022Z,3.80
2023-03-21T18:50:13.215Z,9.25
2023-03-21T18:52:40.777Z,5.90
2023-03-21T18:55:07.268Z,7.68
2023-03-21T18:57:37.504Z,5.97
2023-03-21T19:00:13.189Z,5.30
2023-03-21T19:02:45.515Z,4.90
2023-03-21T19:05:13.596Z,5.40
2023-03-21T19:07:39.830Z,4.13
2023-03-21T19:10:17.514Z,5.13
2023-03-21T19:12:45.053Z,3.60
2023-03-21T19:15:11.482Z,5.18
2023-03-21T19:18:26.119Z,4.63
2023-03-21T19:20:24.565Z,4.90
2023-03-21T19:22:50.932Z,6.28
2023-03-21T19:25:17.216Z,5.72
2023-03-21T19:27:43.467Z,6.18
2023-03-21T19:30:15.497Z,6.15
2023-03-21T19:32:42.314Z,5.55
2023-03-21T19:35:08.704Z,5.63
2023-03-21T19:37:36.221Z,4.85
2023-03-21T19:40:03.541Z,3.97
2023-03-21T19:42:30.862Z,5.22
2023-03-21T19:44:57.315Z,5.28
2023-03-21T19:47:23.613Z,5.68
2023-03-21T19:52:40.298Z,5.20
2023-03-21T19:55:06.746Z,5.03
2023-03-21T19:57:34.917Z,11.82
2023-03-21T20:00:01.466Z,7.28
2023-03-21T20:02:35.675Z,4.55
2023-03-21T20:05:02.733Z,5.72
2023-03-21T20:07:30.573Z,7.60
2023-03-21T20:09:57.530Z,4.07
2023-03-21T20:12:23.878Z,4.55
2023-03-21T20:14:58.023Z,7.15
2023-03-21T20:17:30.772Z,4.90
2023-03-21T20:19:58.045Z,6.00
2023-03-21T20:22:46.074Z,5.43
2023-03-21T20:25:11.489Z,9.38
2023-03-21T20:27:40.363Z,5.57
2023-03-21T20:30:16.876Z,6.50
2023-03-21T20:32:45.649Z,6.35
2023-03-21T20:35:20.800Z,7.55
2023-03-21T20:37:53.718Z,6.43
2023-03-21T20:40:20.482Z,15.02
2023-03-21T20:42:48.774Z,6.18
2023-03-21T20:45:16.575Z,5.85
2023-03-21T20:47:43.341Z,7.40
2023-03-21T20:50:10.910Z,5.22
2023-03-21T20:53:06.889Z,9.20
2023-03-21T20:55:30.582Z,6.05
2023-03-21T20:57:56.807Z,5.90
2023-03-21T21:00:23.209Z,7.05
2023-03-21T21:02:50.029Z,10.52
2023-03-21T21:05:27.477Z,9.15
2023-03-21T21:07:56.539Z,7.13
2023-03-21T21:10:22.880Z,5.85
2023-03-21T21:12:49.088Z,5.75
2023-03-21T21:15:18.014Z,7.22
2023-03-21T21:18:04.850Z,5.25
2023-03-21T21:20:33.408Z,7.75
2023-03-21T21:23:00.871Z,6.50
2023-03-21T21:25:30.272Z,6.32
2023-03-21T21:27:56.490Z,11.57
2023-03-21T21:30:22.841Z,6.57
2023-03-21T21:32:49.438Z,8.00
2023-03-21T21:35:15.919Z,5.47
2023-03-21T21:37:42.888Z,5.93
2023-03-21T21:40:13.573Z,10.00
2023-03-21T21:42:41.142Z,6.03
2023-03-21T21:45:09.290Z,5.28
2023-03-21T21:47:35.969Z,5.78
2023-03-21T21:50:02.372Z,6.60
2023-03-21T21:52:28.897Z,6.13
2023-03-21T21:54:55.074Z,7.97
2023-03-21T21:57:22.706Z,6.10
2023-03-21T21:59:53.973Z,6.80
2023-03-21T22:02:23.713Z,5.75
2023-03-21T22:04:50.921Z,7.00
2023-03-21T22:07:17.177Z,6.50
2023-03-21T22:09:44.423Z,5.43
2023-03-21T22:12:10.892Z,8.20
2023-03-21T22:14:37.090Z,6.53
2023-03-21T22:17:03.642Z,5.55
2023-03-21T22:19:29.983Z,6.65
2023-03-21T22:21:58.109Z,6.18
2023-03-21T22:24:25.204Z,9.77
2023-03-21T22:26:58.061Z,6.38
2023-03-21T22:29:28.097Z,6.35
2023-03-21T22:31:54.433Z,6.10
2023-03-21T22:34:21.930Z,7.93
2023-03-21T22:36:50.129Z,5.93
2023-03-21T22:39:19.905Z,9.15
2023-03-21T22:41:46.224Z,7.50
2023-03-21T22:44:12.558Z,6.53
2023-03-21T22:46:39.161Z,9.05
2023-03-21T22:49:05.982Z,8.70
2023-03-21T22:51:32.318Z,5.90
2023-03-21T22:53:58.523Z,9.00
2023-03-21T22:56:24.826Z,8.68
2023-03-21T22:58:51.043Z,9.05
2023-03-21T23:01:17.253Z,7.22
2023-03-21T23:03:43.549Z,6.80
2023-03-21T23:06:09.870Z,9.57
2023-03-21T23:08:36.106Z,8.85
2023-03-21T23:11:06.619Z,10.13
2023-03-21T23:13:32.955Z,8.77
2023-03-21T23:16:03.013Z,9.18
2023-03-21T23:18:29.903Z,8.27
2023-03-21T23:20:58.183Z,6.90
2023-03-21T23:23:27.450Z,8.60
2023-03-21T23:25:53.653Z,6.95
2023-03-21T23:28:19.959Z,7.97
2023-03-21T23:30:46.342Z,8.63
2023-03-21T23:33:12.570Z,8.02
2023-03-21T23:35:38.818Z,9.52
2023-03-21T23:38:05.524Z,8.70
2023-03-21T23:40:31.740Z,8.98
2023-03-21T23:42:59.511Z,10.98
2023-03-21T23:45:25.842Z,13.38
2023-03-21T23:47:52.083Z,12.55
2023-03-21T23:50:18.306Z,14.13
2023-03-21T23:52:44.654Z,12.10
2023-03-21T23:55:10.923Z,12.18
2023-03-21T23:57:41.518Z,12.23
